Cape Wrath, United Kingdom
Current Conditions -  °F | °C
As of 12:20 PM on Monday 26 Jan 2015 (Local Time) from EGPO Reporting Station
Rain Showers Rain Showers  
Wind Chill: 34°   Ceiling: Unl
Heat Index: 43°   Visibility: 6mi
Dew Point: 37°   Wind: 20mph
Humidity: 81%   Direction: 290°WNW
Pressure: 30"   Gusts: NA
Location:  58.83°N, 5.33°W
Report Text: EGPO 261220Z 29017KT 9999 -SHRA FEW012 SCT016CB 06/03 Q1016
Loading
Personal Weather Stations






























Interactive Weather Map New forecast layout! Learn more

10-Day Weather Forecast

Advertisements
Track Severe Weather on mobile